sensor_id;sensor_type;location;lat;lon;timestamp;temperature;humidity
37240;DHT22;23130;48.760;9.178;2023-12-28T00:00:46;8.60;99.90
37240;DHT22;23130;48.760;9.178;2023-12-28T00:03:11;8.60;99.90
37240;DHT22;23130;48.760;9.178;2023-12-28T00:05:37;8.60;99.90
37240;DHT22;23130;48.760;9.178;2023-12-28T00:08:02;8.50;99.90
37240;DHT22;23130;48.760;9.178;2023-12-28T00:10:28;8.50;99.90
37240;DHT22;23130;48.760;9.178;2023-12-28T00:12:53;8.50;99.90
37240;DHT22;23130;48.760;9.178;2023-12-28T00:15:19;8.40;99.90
37240;DHT22;23130;48.760;9.178;2023-12-28T00:17:45;8.40;99.90
37240;DHT22;23130;48.760;9.178;2023-12-28T00:20:10;8.40;99.90
37240;DHT22;23130;48.760;9.178;2023-12-28T00:22:36;8.30;99.90
37240;DHT22;23130;48.760;9.178;2023-12-28T00:25:05;8.30;99.90
37240;DHT22;23130;48.760;9.178;2023-12-28T00:27:30;8.10;99.90
37240;DHT22;23130;48.760;9.178;2023-12-28T00:29:56;7.90;99.90
37240;DHT22;23130;48.760;9.178;2023-12-28T00:32:22;7.80;99.90
37240;DHT22;23130;48.760;9.178;2023-12-28T00:34:48;7.70;99.90
37240;DHT22;23130;48.760;9.178;2023-12-28T00:37:14;7.60;99.90
37240;DHT22;23130;48.760;9.178;2023-12-28T00:39:39;7.50;99.90
37240;DHT22;23130;48.760;9.178;2023-12-28T00:42:06;7.40;99.90
37240;DHT22;23130;48.760;9.178;2023-12-28T00:44:31;7.20;99.90
37240;DHT22;23130;48.760;9.178;2023-12-28T00:46:57;7.30;99.90
37240;DHT22;23130;48.760;9.178;2023-12-28T00:49:23;7.30;99.90
37240;DHT22;23130;48.760;9.178;2023-12-28T00:51:49;7.30;99.90
37240;DHT22;23130;48.760;9.178;2023-12-28T00:54:15;7.40;99.90
37240;DHT22;23130;48.760;9.178;2023-12-28T00:56:40;7.40;99.90
37240;DHT22;23130;48.760;9.178;2023-12-28T00:59:06;7.50;99.90
37240;DHT22;23130;48.760;9.178;2023-12-28T01:01:31;7.50;99.90
37240;DHT22;23130;48.760;9.178;2023-12-28T01:03:57;7.70;99.90
37240;DHT22;23130;48.760;9.178;2023-12-28T01:06:22;7.80;99.90
37240;DHT22;23130;48.760;9.178;2023-12-28T01:08:48;7.80;99.90
37240;DHT22;23130;48.760;9.178;2023-12-28T01:11:13;7.90;99.90
37240;DHT22;23130;48.760;9.178;2023-12-28T01:13:38;7.90;99.90
37240;DHT22;23130;48.760;9.178;2023-12-28T01:16:04;8.00;99.90
37240;DHT22;23130;48.760;9.178;2023-12-28T01:18:30;7.90;99.90
37240;DHT22;23130;48.760;9.178;2023-12-28T01:20:55;7.90;99.90
37240;DHT22;23130;48.760;9.178;2023-12-28T01:23:20;7.80;99.90
37240;DHT22;23130;48.760;9.178;2023-12-28T01:25:46;7.70;99.90
37240;DHT22;23130;48.760;9.178;2023-12-28T01:28:12;7.60;99.90
37240;DHT22;23130;48.760;9.178;2023-12-28T01:30:37;7.40;99.90
37240;DHT22;23130;48.760;9.178;2023-12-28T01:33:03;7.30;99.90
37240;DHT22;23130;48.760;9.178;2023-12-28T01:35:28;7.20;99.90
37240;DHT22;23130;48.760;9.178;2023-12-28T01:37:54;7.20;99.90
37240;DHT22;23130;48.760;9.178;2023-12-28T01:40:20;7.20;99.90
37240;DHT22;23130;48.760;9.178;2023-12-28T01:42:45;7.10;99.90
37240;DHT22;23130;48.760;9.178;2023-12-28T01:45:11;7.00;99.90
37240;DHT22;23130;48.760;9.178;2023-12-28T01:47:36;6.90;99.90
37240;DHT22;23130;48.760;9.178;2023-12-28T01:50:02;6.90;99.90
37240;DHT22;23130;48.760;9.178;2023-12-28T01:52:30;6.80;99.90
37240;DHT22;23130;48.760;9.178;2023-12-28T01:54:55;6.80;99.90
37240;DHT22;23130;48.760;9.178;2023-12-28T01:57:21;6.70;99.90
37240;DHT22;23130;48.760;9.178;2023-12-28T01:59:46;6.70;99.90
37240;DHT22;23130;48.760;9.178;2023-12-28T02:02:13;6.70;99.90
37240;DHT22;23130;48.760;9.178;2023-12-28T02:04:38;6.80;99.90
37240;DHT22;23130;48.760;9.178;2023-12-28T02:07:04;7.00;99.90
37240;DHT22;23130;48.760;9.178;2023-12-28T02:09:30;7.10;99.90
37240;DHT22;23130;48.760;9.178;2023-12-28T02:11:56;7.10;99.90
37240;DHT22;23130;48.760;9.178;2023-12-28T02:14:21;7.10;99.90
37240;DHT22;23130;48.760;9.178;2023-12-28T02:16:55;7.00;99.90
37240;DHT22;23130;48.760;9.178;2023-12-28T02:19:45;6.90;99.90
37240;DHT22;23130;48.760;9.178;2023-12-28T02:22:07;6.80;99.90
37240;DHT22;23130;48.760;9.178;2023-12-28T02:27:18;6.70;99.90
37240;DHT22;23130;48.760;9.178;2023-12-28T02:29:44;6.70;99.90
37240;DHT22;23130;48.760;9.178;2023-12-28T02:32:09;6.50;99.90
37240;DHT22;23130;48.760;9.178;2023-12-28T02:34:36;6.50;99.90
37240;DHT22;23130;48.760;9.178;2023-12-28T02:37:03;6.60;99.90
37240;DHT22;23130;48.760;9.178;2023-12-28T02:39:29;6.60;99.90
37240;DHT22;23130;48.760;9.178;2023-12-28T02:41:55;6.50;99.90
37240;DHT22;23130;48.760;9.178;2023-12-28T02:44:21;6.70;99.90
37240;DHT22;23130;48.760;9.178;2023-12-28T02:46:46;6.60;99.90
37240;DHT22;23130;48.760;9.178;2023-12-28T02:49:12;6.70;99.90
37240;DHT22;23130;48.760;9.178;2023-12-28T02:51:39;6.80;99.90
37240;DHT22;23130;48.760;9.178;2023-12-28T02:54:04;6.70;99.90
37240;DHT22;23130;48.760;9.178;2023-12-28T02:56:30;6.70;99.90
37240;DHT22;23130;48.760;9.178;2023-12-28T02:58:57;6.70;99.90
37240;DHT22;23130;48.760;9.178;2023-12-28T03:01:24;6.50;99.90
37240;DHT22;23130;48.760;9.178;2023-12-28T03:03:49;6.50;99.90
37240;DHT22;23130;48.760;9.178;2023-12-28T03:06:15;6.50;99.90
37240;DHT22;23130;48.760;9.178;2023-12-28T03:08:41;6.50;99.90
37240;DHT22;23130;48.760;9.178;2023-12-28T03:11:07;6.50;99.90
37240;DHT22;23130;48.760;9.178;2023-12-28T03:13:32;6.50;99.90
37240;DHT22;23130;48.760;9.178;2023-12-28T03:15:57;6.60;99.90
37240;DHT22;23130;48.760;9.178;2023-12-28T03:18:23;6.50;99.90
37240;DHT22;23130;48.760;9.178;2023-12-28T03:20:48;6.40;99.90
37240;DHT22;23130;48.760;9.178;2023-12-28T03:23:14;6.40;99.90
37240;DHT22;23130;48.760;9.178;2023-12-28T03:25:39;6.40;99.90
37240;DHT22;23130;48.760;9.178;2023-12-28T03:28:05;6.40;99.90
37240;DHT22;23130;48.760;9.178;2023-12-28T03:30:30;6.40;99.90
37240;DHT22;23130;48.760;9.178;2023-12-28T03:32:57;6.30;99.90
37240;DHT22;23130;48.760;9.178;2023-12-28T03:35:22;6.40;99.90
37240;DHT22;23130;48.760;9.178;2023-12-28T03:37:51;6.40;99.90
37240;DHT22;23130;48.760;9.178;2023-12-28T03:40:16;6.40;99.90
37240;DHT22;23130;48.760;9.178;2023-12-28T03:42:42;6.50;99.90
37240;DHT22;23130;48.760;9.178;2023-12-28T03:45:07;6.50;99.90
37240;DHT22;23130;48.760;9.178;2023-12-28T03:47:33;6.60;99.90
37240;DHT22;23130;48.760;9.178;2023-12-28T03:49:58;6.70;99.90
37240;DHT22;23130;48.760;9.178;2023-12-28T03:52:27;6.90;99.90
37240;DHT22;23130;48.760;9.178;2023-12-28T03:54:55;7.20;99.90
37240;DHT22;23130;48.760;9.178;2023-12-28T03:57:21;7.40;99.90
37240;DHT22;23130;48.760;9.178;2023-12-28T03:59:46;7.60;99.90
37240;DHT22;23130;48.760;9.178;2023-12-28T04:02:13;7.70;99.90
37240;DHT22;23130;48.760;9.178;2023-12-28T04:04:38;7.80;99.90
37240;DHT22;23130;48.760;9.178;2023-12-28T04:07:04;7.90;99.90
37240;DHT22;23130;48.760;9.178;2023-12-28T04:09:32;8.00;99.90
37240;DHT22;23130;48.760;9.178;2023-12-28T04:11:58;8.00;99.90
37240;DHT22;23130;48.760;9.178;2023-12-28T04:14:24;8.00;99.90
37240;DHT22;23130;48.760;9.178;2023-12-28T04:16:50;8.00;99.90
37240;DHT22;23130;48.760;9.178;2023-12-28T04:19:15;7.90;99.90
37240;DHT22;23130;48.760;9.178;2023-12-28T04:21:44;7.90;99.90
37240;DHT22;23130;48.760;9.178;2023-12-28T04:24:10;7.80;99.90
37240;DHT22;23130;48.760;9.178;2023-12-28T04:26:35;7.80;99.90
37240;DHT22;23130;48.760;9.178;2023-12-28T04:29:02;7.70;99.90
37240;DHT22;23130;48.760;9.178;2023-12-28T04:31:28;7.70;99.90
37240;DHT22;23130;48.760;9.178;2023-12-28T04:33:53;7.70;99.90
37240;DHT22;23130;48.760;9.178;2023-12-28T04:36:19;7.90;99.90
37240;DHT22;23130;48.760;9.178;2023-12-28T04:38:45;7.90;99.90
37240;DHT22;23130;48.760;9.178;2023-12-28T04:41:10;7.90;99.90
37240;DHT22;23130;48.760;9.178;2023-12-28T04:43:37;8.00;99.90
37240;DHT22;23130;48.760;9.178;2023-12-28T04:46:03;8.20;99.90
37240;DHT22;23130;48.760;9.178;2023-12-28T04:48:29;8.40;99.90
37240;DHT22;23130;48.760;9.178;2023-12-28T04:50:54;8.50;99.90
37240;DHT22;23130;48.760;9.178;2023-12-28T04:53:20;8.50;99.90
37240;DHT22;23130;48.760;9.178;2023-12-28T04:55:46;8.70;99.90
37240;DHT22;23130;48.760;9.178;2023-12-28T04:58:12;8.70;99.90
37240;DHT22;23130;48.760;9.178;2023-12-28T05:00:37;8.70;99.90
37240;DHT22;23130;48.760;9.178;2023-12-28T05:03:03;8.70;99.90
37240;DHT22;23130;48.760;9.178;2023-12-28T05:05:28;8.60;99.90
37240;DHT22;23130;48.760;9.178;2023-12-28T05:07:54;8.60;99.90
37240;DHT22;23130;48.760;9.178;2023-12-28T05:10:20;8.60;99.90
37240;DHT22;23130;48.760;9.178;2023-12-28T05:12:46;8.50;99.90
37240;DHT22;23130;48.760;9.178;2023-12-28T05:15:12;8.40;99.90
37240;DHT22;23130;48.760;9.178;2023-12-28T05:17:37;8.30;99.90
37240;DHT22;23130;48.760;9.178;2023-12-28T05:20:03;8.30;99.90
37240;DHT22;23130;48.760;9.178;2023-12-28T05:22:28;8.30;99.90
37240;DHT22;23130;48.760;9.178;2023-12-28T05:24:54;8.30;99.90
37240;DHT22;23130;48.760;9.178;2023-12-28T05:27:19;8.30;99.90
37240;DHT22;23130;48.760;9.178;2023-12-28T05:29:45;8.40;99.90
37240;DHT22;23130;48.760;9.178;2023-12-28T05:32:10;8.50;99.90
37240;DHT22;23130;48.760;9.178;2023-12-28T05:34:37;8.60;99.90
37240;DHT22;23130;48.760;9.178;2023-12-28T05:37:02;8.70;99.90
37240;DHT22;23130;48.760;9.178;2023-12-28T05:39:29;8.80;99.90
37240;DHT22;23130;48.760;9.178;2023-12-28T05:41:54;8.80;99.90
37240;DHT22;23130;48.760;9.178;2023-12-28T05:44:20;8.90;99.90
37240;DHT22;23130;48.760;9.178;2023-12-28T05:46:46;8.90;99.90
37240;DHT22;23130;48.760;9.178;2023-12-28T05:49:12;8.80;99.90
37240;DHT22;23130;48.760;9.178;2023-12-28T05:51:38;8.70;99.90
37240;DHT22;23130;48.760;9.178;2023-12-28T05:54:05;8.70;99.90
37240;DHT22;23130;48.760;9.178;2023-12-28T05:56:31;8.60;99.90
37240;DHT22;23130;48.760;9.178;2023-12-28T05:58:56;8.50;99.90
37240;DHT22;23130;48.760;9.178;2023-12-28T06:01:22;8.50;99.90
37240;DHT22;23130;48.760;9.178;2023-12-28T06:03:47;8.50;99.90
37240;DHT22;23130;48.760;9.178;2023-12-28T06:06:15;8.60;99.90
37240;DHT22;23130;48.760;9.178;2023-12-28T06:08:41;8.70;99.90
37240;DHT22;23130;48.760;9.178;2023-12-28T06:11:06;8.90;99.90
37240;DHT22;23130;48.760;9.178;2023-12-28T06:13:32;8.90;99.90
37240;DHT22;23130;48.760;9.178;2023-12-28T06:15:57;9.10;99.90
37240;DHT22;23130;48.760;9.178;2023-12-28T06:18:23;9.10;99.90
37240;DHT22;23130;48.760;9.178;2023-12-28T06:20:48;9.10;99.90
37240;DHT22;23130;48.760;9.178;2023-12-28T06:23:15;9.10;99.90
37240;DHT22;23130;48.760;9.178;2023-12-28T06:25:42;9.10;99.90
37240;DHT22;23130;48.760;9.178;2023-12-28T06:28:08;9.10;99.90
37240;DHT22;23130;48.760;9.178;2023-12-28T06:30:33;9.10;99.90
37240;DHT22;23130;48.760;9.178;2023-12-28T06:32:59;9.10;99.90
37240;DHT22;23130;48.760;9.178;2023-12-28T06:35:24;9.10;99.90
37240;DHT22;23130;48.760;9.178;2023-12-28T06:37:50;9.20;99.90
37240;DHT22;23130;48.760;9.178;2023-12-28T06:40:15;9.40;99.90
37240;DHT22;23130;48.760;9.178;2023-12-28T06:42:41;9.50;99.90
37240;DHT22;23130;48.760;9.178;2023-12-28T06:45:08;9.50;99.90
37240;DHT22;23130;48.760;9.178;2023-12-28T06:47:34;9.50;99.90
37240;DHT22;23130;48.760;9.178;2023-12-28T06:50:00;9.50;99.90
37240;DHT22;23130;48.760;9.178;2023-12-28T06:52:25;9.50;99.90
37240;DHT22;23130;48.760;9.178;2023-12-28T06:54:51;9.50;99.90
37240;DHT22;23130;48.760;9.178;2023-12-28T06:57:16;9.50;99.90
37240;DHT22;23130;48.760;9.178;2023-12-28T06:59:42;9.50;99.90
37240;DHT22;23130;48.760;9.178;2023-12-28T07:02:07;9.60;99.90
37240;DHT22;23130;48.760;9.178;2023-12-28T07:04:33;9.60;99.90
37240;DHT22;23130;48.760;9.178;2023-12-28T07:06:58;9.60;99.90
37240;DHT22;23130;48.760;9.178;2023-12-28T07:09:23;9.60;99.90
37240;DHT22;23130;48.760;9.178;2023-12-28T07:11:49;9.60;99.90
37240;DHT22;23130;48.760;9.178;2023-12-28T07:14:17;9.60;99.90
37240;DHT22;23130;48.760;9.178;2023-12-28T07:16:43;9.60;99.90
37240;DHT22;23130;48.760;9.178;2023-12-28T07:19:09;9.60;99.90
37240;DHT22;23130;48.760;9.178;2023-12-28T07:21:34;9.70;99.90
37240;DHT22;23130;48.760;9.178;2023-12-28T07:23:59;9.70;99.90
37240;DHT22;23130;48.760;9.178;2023-12-28T07:26:25;9.70;99.90
37240;DHT22;23130;48.760;9.178;2023-12-28T07:28:50;9.70;99.90
37240;DHT22;23130;48.760;9.178;2023-12-28T07:31:23;9.70;99.90
37240;DHT22;23130;48.760;9.178;2023-12-28T07:33:48;9.70;99.90
37240;DHT22;23130;48.760;9.178;2023-12-28T07:36:14;9.70;99.90
37240;DHT22;23130;48.760;9.178;2023-12-28T07:38:39;9.70;99.90
37240;DHT22;23130;48.760;9.178;2023-12-28T07:41:05;9.70;99.90
37240;DHT22;23130;48.760;9.178;2023-12-28T07:43:30;9.70;99.90
37240;DHT22;23130;48.760;9.178;2023-12-28T07:45:56;9.70;99.90
37240;DHT22;23130;48.760;9.178;2023-12-28T07:48:21;9.70;99.90
37240;DHT22;23130;48.760;9.178;2023-12-28T07:50:47;9.70;99.90
37240;DHT22;23130;48.760;9.178;2023-12-28T07:53:14;9.70;99.90
37240;DHT22;23130;48.760;9.178;2023-12-28T07:55:41;9.70;99.90
37240;DHT22;23130;48.760;9.178;2023-12-28T07:58:06;9.60;99.90
37240;DHT22;23130;48.760;9.178;2023-12-28T08:00:32;9.60;99.90
37240;DHT22;23130;48.760;9.178;2023-12-28T08:02:57;9.60;99.90
37240;DHT22;23130;48.760;9.178;2023-12-28T08:05:23;9.70;99.90
37240;DHT22;23130;48.760;9.178;2023-12-28T08:07:49;9.60;99.90
37240;DHT22;23130;48.760;9.178;2023-12-28T08:10:14;9.70;99.90
37240;DHT22;23130;48.760;9.178;2023-12-28T08:12:40;9.70;99.90
37240;DHT22;23130;48.760;9.178;2023-12-28T08:15:05;9.60;99.90
37240;DHT22;23130;48.760;9.178;2023-12-28T08:17:31;9.60;99.90
37240;DHT22;23130;48.760;9.178;2023-12-28T08:19:56;9.60;99.90
37240;DHT22;23130;48.760;9.178;2023-12-28T08:22:22;9.60;99.90
37240;DHT22;23130;48.760;9.178;2023-12-28T08:24:48;9.70;99.90
37240;DHT22;23130;48.760;9.178;2023-12-28T08:27:14;9.70;99.90
37240;DHT22;23130;48.760;9.178;2023-12-28T08:29:40;9.70;99.90
37240;DHT22;23130;48.760;9.178;2023-12-28T08:32:07;9.70;99.90
37240;DHT22;23130;48.760;9.178;2023-12-28T08:34:32;9.90;99.90
37240;DHT22;23130;48.760;9.178;2023-12-28T08:36:58;9.80;99.90
37240;DHT22;23130;48.760;9.178;2023-12-28T08:39:23;9.90;99.90
37240;DHT22;23130;48.760;9.178;2023-12-28T08:41:49;9.90;99.90
37240;DHT22;23130;48.760;9.178;2023-12-28T08:44:14;9.80;99.90
37240;DHT22;23130;48.760;9.178;2023-12-28T08:46:40;9.90;99.90
37240;DHT22;23130;48.760;9.178;2023-12-28T08:49:05;9.90;99.90
37240;DHT22;23130;48.760;9.178;2023-12-28T08:51:31;9.90;99.90
37240;DHT22;23130;48.760;9.178;2023-12-28T08:53:56;9.90;99.90
37240;DHT22;23130;48.760;9.178;2023-12-28T08:56:22;10.00;99.90
37240;DHT22;23130;48.760;9.178;2023-12-28T08:58:48;10.10;99.90
37240;DHT22;23130;48.760;9.178;2023-12-28T09:01:17;10.20;99.90
37240;DHT22;23130;48.760;9.178;2023-12-28T09:03:44;10.20;99.90
37240;DHT22;23130;48.760;9.178;2023-12-28T09:06:10;10.30;99.90
37240;DHT22;23130;48.760;9.178;2023-12-28T09:08:35;10.40;99.90
37240;DHT22;23130;48.760;9.178;2023-12-28T09:11:00;10.40;99.90
37240;DHT22;23130;48.760;9.178;2023-12-28T09:13:26;10.40;99.90
37240;DHT22;23130;48.760;9.178;2023-12-28T09:15:51;10.40;99.90
37240;DHT22;23130;48.760;9.178;2023-12-28T09:18:17;10.40;99.90
37240;DHT22;23130;48.760;9.178;2023-12-28T09:20:42;10.40;99.90
37240;DHT22;23130;48.760;9.178;2023-12-28T09:23:08;10.50;99.90
37240;DHT22;23130;48.760;9.178;2023-12-28T09:25:37;10.40;99.90
37240;DHT22;23130;48.760;9.178;2023-12-28T09:28:05;10.50;99.90
37240;DHT22;23130;48.760;9.178;2023-12-28T09:30:31;10.40;99.90
37240;DHT22;23130;48.760;9.178;2023-12-28T09:32:57;10.40;99.90
37240;DHT22;23130;48.760;9.178;2023-12-28T09:35:23;10.50;99.90
37240;DHT22;23130;48.760;9.178;2023-12-28T09:37:50;10.60;99.90
37240;DHT22;23130;48.760;9.178;2023-12-28T09:40:15;10.60;99.90
37240;DHT22;23130;48.760;9.178;2023-12-28T09:42:48;10.70;99.90
37240;DHT22;23130;48.760;9.178;2023-12-28T09:45:17;10.70;99.90
37240;DHT22;23130;48.760;9.178;2023-12-28T09:47:43;10.80;99.90
37240;DHT22;23130;48.760;9.178;2023-12-28T09:50:09;10.80;99.90
37240;DHT22;23130;48.760;9.178;2023-12-28T09:52:36;10.90;99.90
37240;DHT22;23130;48.760;9.178;2023-12-28T09:55:01;11.00;99.90
37240;DHT22;23130;48.760;9.178;2023-12-28T09:57:27;11.00;99.90
37240;DHT22;23130;48.760;9.178;2023-12-28T09:59:52;11.00;99.90
37240;DHT22;23130;48.760;9.178;2023-12-28T10:02:18;11.00;99.90
37240;DHT22;23130;48.760;9.178;2023-12-28T10:04:44;11.00;99.90
37240;DHT22;23130;48.760;9.178;2023-12-28T10:07:09;11.00;99.90
37240;DHT22;23130;48.760;9.178;2023-12-28T10:09:36;11.00;99.90
37240;DHT22;23130;48.760;9.178;2023-12-28T10:12:02;11.00;99.90
37240;DHT22;23130;48.760;9.178;2023-12-28T10:14:28;11.00;99.90
37240;DHT22;23130;48.760;9.178;2023-12-28T10:16:54;11.00;99.90
37240;DHT22;23130;48.760;9.178;2023-12-28T10:19:22;11.00;99.90
37240;DHT22;23130;48.760;9.178;2023-12-28T10:21:50;10.90;99.90
37240;DHT22;23130;48.760;9.178;2023-12-28T10:24:16;10.90;99.90
37240;DHT22;23130;48.760;9.178;2023-12-28T10:26:41;10.90;99.90
37240;DHT22;23130;48.760;9.178;2023-12-28T10:29:07;10.90;99.90
37240;DHT22;23130;48.760;9.178;2023-12-28T10:31:33;10.80;99.90
37240;DHT22;23130;48.760;9.178;2023-12-28T10:33:59;10.80;99.90
37240;DHT22;23130;48.760;9.178;2023-12-28T10:36:27;10.80;99.90
37240;DHT22;23130;48.760;9.178;2023-12-28T10:38:53;10.80;99.90
37240;DHT22;23130;48.760;9.178;2023-12-28T10:41:18;10.70;99.90
37240;DHT22;23130;48.760;9.178;2023-12-28T10:46:09;10.70;99.90
37240;DHT22;23130;48.760;9.178;2023-12-28T10:48:36;10.70;99.90
37240;DHT22;23130;48.760;9.178;2023-12-28T10:51:05;10.70;99.90
37240;DHT22;23130;48.760;9.178;2023-12-28T10:58:49;11.10;99.90
37240;DHT22;23130;48.760;9.178;2023-12-28T11:01:17;11.20;99.90
37240;DHT22;23130;48.760;9.178;2023-12-28T11:03:46;11.20;99.90
37240;DHT22;23130;48.760;9.178;2023-12-28T11:06:12;11.20;99.90
37240;DHT22;23130;48.760;9.178;2023-12-28T11:08:40;11.30;99.90
37240;DHT22;23130;48.760;9.178;2023-12-28T11:11:08;11.30;99.90
37240;DHT22;23130;48.760;9.178;2023-12-28T11:13:34;11.30;99.90
37240;DHT22;23130;48.760;9.178;2023-12-28T11:16:00;11.30;99.90
37240;DHT22;23130;48.760;9.178;2023-12-28T11:18:26;11.30;99.90
37240;DHT22;23130;48.760;9.178;2023-12-28T11:20:53;11.30;99.90
37240;DHT22;23130;48.760;9.178;2023-12-28T11:23:19;11.30;99.90
37240;DHT22;23130;48.760;9.178;2023-12-28T11:25:45;11.30;99.90
37240;DHT22;23130;48.760;9.178;2023-12-28T11:28:11;11.30;99.90
37240;DHT22;23130;48.760;9.178;2023-12-28T11:30:37;11.30;99.90
37240;DHT22;23130;48.760;9.178;2023-12-28T11:33:06;11.30;99.90
37240;DHT22;23130;48.760;9.178;2023-12-28T11:35:33;11.20;99.90
37240;DHT22;23130;48.760;9.178;2023-12-28T11:37:59;11.20;99.90
37240;DHT22;23130;48.760;9.178;2023-12-28T11:40:28;11.20;99.90
37240;DHT22;23130;48.760;9.178;2023-12-28T11:42:53;11.20;99.90
37240;DHT22;23130;48.760;9.178;2023-12-28T11:45:19;11.10;99.90
37240;DHT22;23130;48.760;9.178;2023-12-28T11:47:45;11.00;99.90
37240;DHT22;23130;48.760;9.178;2023-12-28T11:50:11;11.00;99.90
37240;DHT22;23130;48.760;9.178;2023-12-28T11:52:37;11.10;99.90
37240;DHT22;23130;48.760;9.178;2023-12-28T11:55:03;11.00;99.90
37240;DHT22;23130;48.760;9.178;2023-12-28T11:57:30;11.00;99.90
37240;DHT22;23130;48.760;9.178;2023-12-28T11:59:57;11.00;99.90
37240;DHT22;23130;48.760;9.178;2023-12-28T12:02:23;11.00;99.90
37240;DHT22;23130;48.760;9.178;2023-12-28T12:04:55;11.00;99.90
37240;DHT22;23130;48.760;9.178;2023-12-28T12:07:25;11.00;99.90
37240;DHT22;23130;48.760;9.178;2023-12-28T12:09:57;11.00;99.90
37240;DHT22;23130;48.760;9.178;2023-12-28T12:12:23;11.00;99.90
37240;DHT22;23130;48.760;9.178;2023-12-28T12:14:48;11.00;99.90
37240;DHT22;23130;48.760;9.178;2023-12-28T12:17:14;11.00;99.90
37240;DHT22;23130;48.760;9.178;2023-12-28T12:19:39;11.10;99.90
37240;DHT22;23130;48.760;9.178;2023-12-28T12:22:05;11.00;99.90
37240;DHT22;23130;48.760;9.178;2023-12-28T12:24:30;11.10;99.90
37240;DHT22;23130;48.760;9.178;2023-12-28T12:26:56;11.20;99.90
37240;DHT22;23130;48.760;9.178;2023-12-28T12:29:22;11.30;99.90
37240;DHT22;23130;48.760;9.178;2023-12-28T12:31:49;11.30;99.90
37240;DHT22;23130;48.760;9.178;2023-12-28T12:34:17;11.20;99.90
37240;DHT22;23130;48.760;9.178;2023-12-28T12:36:43;11.20;99.90
37240;DHT22;23130;48.760;9.178;2023-12-28T12:39:10;11.30;99.90
37240;DHT22;23130;48.760;9.178;2023-12-28T12:41:36;11.20;99.90
37240;DHT22;23130;48.760;9.178;2023-12-28T12:44:03;11.30;99.90
37240;DHT22;23130;48.760;9.178;2023-12-28T12:46:29;11.30;99.90
37240;DHT22;23130;48.760;9.178;2023-12-28T12:48:59;11.20;99.90
37240;DHT22;23130;48.760;9.178;2023-12-28T12:51:26;11.20;99.90
37240;DHT22;23130;48.760;9.178;2023-12-28T12:54:02;11.30;99.90
37240;DHT22;23130;48.760;9.178;2023-12-28T12:56:31;11.30;99.90
37240;DHT22;23130;48.760;9.178;2023-12-28T12:58:57;11.30;99.90
37240;DHT22;23130;48.760;9.178;2023-12-28T13:01:22;11.30;99.90
37240;DHT22;23130;48.760;9.178;2023-12-28T13:03:49;11.30;99.90
37240;DHT22;23130;48.760;9.178;2023-12-28T13:06:15;11.20;99.90
37240;DHT22;23130;48.760;9.178;2023-12-28T13:08:40;11.20;99.90
37240;DHT22;23130;48.760;9.178;2023-12-28T13:11:07;11.30;99.90
37240;DHT22;23130;48.760;9.178;2023-12-28T13:13:35;11.30;99.90
37240;DHT22;23130;48.760;9.178;2023-12-28T13:16:01;11.40;99.90
37240;DHT22;23130;48.760;9.178;2023-12-28T13:18:27;11.40;99.90
37240;DHT22;23130;48.760;9.178;2023-12-28T13:20:54;11.40;99.90
37240;DHT22;23130;48.760;9.178;2023-12-28T13:23:20;11.40;99.90
37240;DHT22;23130;48.760;9.178;2023-12-28T13:25:46;11.40;99.90
37240;DHT22;23130;48.760;9.178;2023-12-28T13:28:11;11.30;99.90
37240;DHT22;23130;48.760;9.178;2023-12-28T13:30:38;11.20;99.90
37240;DHT22;23130;48.760;9.178;2023-12-28T13:33:04;11.20;99.90
37240;DHT22;23130;48.760;9.178;2023-12-28T13:35:31;11.10;99.90
37240;DHT22;23130;48.760;9.178;2023-12-28T13:38:00;11.10;99.90
37240;DHT22;23130;48.760;9.178;2023-12-28T13:40:28;11.10;99.90
37240;DHT22;23130;48.760;9.178;2023-12-28T13:42:56;11.00;99.90
37240;DHT22;23130;48.760;9.178;2023-12-28T13:45:22;11.00;99.90
37240;DHT22;23130;48.760;9.178;2023-12-28T13:47:47;11.00;99.90
37240;DHT22;23130;48.760;9.178;2023-12-28T13:50:13;11.00;99.90
37240;DHT22;23130;48.760;9.178;2023-12-28T13:52:38;11.00;99.90
37240;DHT22;23130;48.760;9.178;2023-12-28T13:55:03;11.00;99.90
37240;DHT22;23130;48.760;9.178;2023-12-28T13:57:30;11.00;99.90
37240;DHT22;23130;48.760;9.178;2023-12-28T13:59:56;11.00;99.90
37240;DHT22;23130;48.760;9.178;2023-12-28T14:02:28;10.90;99.90
37240;DHT22;23130;48.760;9.178;2023-12-28T14:04:53;10.90;99.90
37240;DHT22;23130;48.760;9.178;2023-12-28T14:07:24;10.90;99.90
37240;DHT22;23130;48.760;9.178;2023-12-28T14:09:50;10.80;99.90
37240;DHT22;23130;48.760;9.178;2023-12-28T14:12:16;10.70;99.90
37240;DHT22;23130;48.760;9.178;2023-12-28T14:14:41;10.70;99.90
37240;DHT22;23130;48.760;9.178;2023-12-28T14:17:07;10.80;99.90
37240;DHT22;23130;48.760;9.178;2023-12-28T14:19:32;10.80;99.90
37240;DHT22;23130;48.760;9.178;2023-12-28T14:21:59;10.80;99.90
37240;DHT22;23130;48.760;9.178;2023-12-28T14:24:25;10.80;99.90
37240;DHT22;23130;48.760;9.178;2023-12-28T14:26:52;10.80;99.90
37240;DHT22;23130;48.760;9.178;2023-12-28T14:29:18;10.70;99.90
37240;DHT22;23130;48.760;9.178;2023-12-28T14:31:44;10.60;99.90
37240;DHT22;23130;48.760;9.178;2023-12-28T14:34:09;10.60;99.90
37240;DHT22;23130;48.760;9.178;2023-12-28T14:36:35;10.50;99.90
37240;DHT22;23130;48.760;9.178;2023-12-28T14:39:04;10.40;99.90
37240;DHT22;23130;48.760;9.178;2023-12-28T14:41:36;10.40;99.90
37240;DHT22;23130;48.760;9.178;2023-12-28T14:44:01;10.20;99.90
37240;DHT22;23130;48.760;9.178;2023-12-28T14:46:27;10.20;99.90
37240;DHT22;23130;48.760;9.178;2023-12-28T14:48:55;10.10;99.90
37240;DHT22;23130;48.760;9.178;2023-12-28T14:51:20;10.10;99.90
37240;DHT22;23130;48.760;9.178;2023-12-28T14:53:47;10.00;99.90
37240;DHT22;23130;48.760;9.178;2023-12-28T14:56:13;10.10;99.90
37240;DHT22;23130;48.760;9.178;2023-12-28T14:58:38;10.20;99.90
37240;DHT22;23130;48.760;9.178;2023-12-28T15:01:04;10.20;99.90
37240;DHT22;23130;48.760;9.178;2023-12-28T15:03:30;10.20;99.90
37240;DHT22;23130;48.760;9.178;2023-12-28T15:05:57;10.10;99.90
37240;DHT22;23130;48.760;9.178;2023-12-28T15:08:25;10.10;99.90
37240;DHT22;23130;48.760;9.178;2023-12-28T15:10:51;10.10;99.90
37240;DHT22;23130;48.760;9.178;2023-12-28T15:13:17;10.10;99.90
37240;DHT22;23130;48.760;9.178;2023-12-28T15:15:45;10.10;99.90
37240;DHT22;23130;48.760;9.178;2023-12-28T15:18:12;10.10;99.90
37240;DHT22;23130;48.760;9.178;2023-12-28T15:20:38;10.10;99.90
37240;DHT22;23130;48.760;9.178;2023-12-28T15:23:03;10.10;99.90
37240;DHT22;23130;48.760;9.178;2023-12-28T15:25:29;10.10;99.90
37240;DHT22;23130;48.760;9.178;2023-12-28T15:27:56;10.10;99.90
37240;DHT22;23130;48.760;9.178;2023-12-28T15:30:22;10.00;99.90
37240;DHT22;23130;48.760;9.178;2023-12-28T15:32:47;10.00;99.90
37240;DHT22;23130;48.760;9.178;2023-12-28T15:35:13;10.00;99.90
37240;DHT22;23130;48.760;9.178;2023-12-28T15:37:42;9.90;99.90
37240;DHT22;23130;48.760;9.178;2023-12-28T15:40:08;9.90;99.90
37240;DHT22;23130;48.760;9.178;2023-12-28T15:42:34;9.90;99.90